createdAt,value
2017-10-05T00:00:45.027Z,0
2017-10-05T00:01:45.046Z,0
2017-10-05T00:02:45.073Z,0
2017-10-05T00:03:45.090Z,0
2017-10-05T00:04:45.107Z,0
2017-10-05T00:05:45.127Z,0
2017-10-05T00:06:45.147Z,0
2017-10-05T00:07:45.176Z,0
2017-10-05T00:08:45.192Z,0
2017-10-05T00:09:45.215Z,0
2017-10-05T00:10:45.555Z,0
2017-10-05T00:11:45.258Z,0
2017-10-05T00:12:45.280Z,0
2017-10-05T00:13:45.610Z,0
2017-10-05T00:14:45.322Z,0
2017-10-05T00:15:45.344Z,0
2017-10-05T00:16:45.388Z,0
2017-10-05T00:17:45.385Z,0
2017-10-05T00:18:45.399Z,0
2017-10-05T00:19:45.429Z,0
2017-10-05T00:20:45.446Z,0
2017-10-05T00:21:45.462Z,0
2017-10-05T00:22:45.480Z,0
2017-10-05T00:23:45.510Z,0
2017-10-05T00:24:45.521Z,0
2017-10-05T00:25:45.541Z,0
2017-10-05T00:26:45.578Z,0
2017-10-05T00:27:45.630Z,0
2017-10-05T00:28:45.601Z,0
2017-10-05T00:30:11.362Z,0
2017-10-05T00:30:45.947Z,0
2017-10-05T00:31:45.672Z,0
2017-10-05T00:32:45.707Z,0
2017-10-05T00:33:46.019Z,0
2017-10-05T00:34:45.942Z,0
2017-10-05T00:35:46.091Z,0
2017-10-05T00:36:45.766Z,0
2017-10-05T00:37:45.806Z,0
2017-10-05T00:38:45.814Z,0
2017-10-05T00:39:45.828Z,0
2017-10-05T00:40:46.165Z,0
2017-10-05T00:42:46.252Z,0
2017-10-05T00:43:45.907Z,0
2017-10-05T00:44:45.929Z,0
2017-10-05T00:45:45.945Z,0
2017-10-05T00:46:45.980Z,0
2017-10-05T00:47:45.991Z,0
2017-10-05T00:48:46.017Z,0
2017-10-05T00:49:46.028Z,0
2017-10-05T00:50:46.050Z,0
2017-10-05T00:51:46.379Z,0
2017-10-05T00:52:46.087Z,0
2017-10-05T00:53:46.123Z,0
2017-10-05T00:54:46.134Z,0
2017-10-05T00:55:46.153Z,0
2017-10-05T00:56:46.169Z,0
2017-10-05T00:57:46.246Z,0
2017-10-05T00:58:46.218Z,0
2017-10-05T00:59:46.232Z,0
2017-10-05T01:00:46.565Z,0
2017-10-05T01:01:46.287Z,0
2017-10-05T01:02:46.299Z,0
2017-10-05T01:03:46.633Z,0
2017-10-05T01:04:46.335Z,0
2017-10-05T01:05:46.372Z,0
2017-10-05T01:06:46.377Z,0
2017-10-05T01:07:46.403Z,0
2017-10-05T01:08:46.425Z,0
2017-10-05T01:09:46.771Z,0
2017-10-05T01:10:46.461Z,0
2017-10-05T01:11:46.481Z,0
2017-10-05T01:12:46.559Z,0
2017-10-05T01:13:46.519Z,0
2017-10-05T01:14:46.550Z,0
2017-10-05T01:15:46.873Z,0
2017-10-05T01:16:46.589Z,0
2017-10-05T01:17:46.925Z,0
2017-10-05T01:18:46.633Z,0
2017-10-05T01:19:46.646Z,0
2017-10-05T01:20:46.666Z,0
2017-10-05T01:21:46.687Z,0
2017-10-05T01:22:46.709Z,0
2017-10-05T01:23:46.730Z,0
2017-10-05T01:24:46.751Z,0
2017-10-05T01:25:46.776Z,0
2017-10-05T01:26:46.789Z,0
2017-10-05T01:27:46.821Z,0
2017-10-05T01:28:46.828Z,0
2017-10-05T01:29:46.851Z,0
2017-10-05T01:30:47.240Z,0
2017-10-05T01:31:48.017Z,0
2017-10-05T01:32:47.321Z,0
2017-10-05T01:33:46.938Z,0
2017-10-05T01:34:46.962Z,0
2017-10-05T01:35:46.974Z,0
2017-10-05T01:36:47.319Z,0
2017-10-05T01:37:47.021Z,0
2017-10-05T01:38:47.037Z,0
2017-10-05T01:39:47.063Z,0
2017-10-05T01:40:47.077Z,0
2017-10-05T01:41:47.118Z,0
2017-10-05T01:42:47.121Z,0
2017-10-05T01:43:47.144Z,0
2017-10-05T01:44:47.168Z,0
2017-10-05T01:45:47.546Z,0
2017-10-05T01:46:47.543Z,0
2017-10-05T01:47:47.238Z,0
2017-10-05T01:48:47.255Z,0
2017-10-05T01:49:47.270Z,0
2017-10-05T01:50:47.295Z,0
2017-10-05T01:51:47.310Z,0
2017-10-05T01:52:47.333Z,0
2017-10-05T01:53:47.354Z,0
2017-10-05T01:54:47.377Z,0
2017-10-05T01:55:47.387Z,0
2017-10-05T01:56:47.408Z,0
2017-10-05T01:57:47.429Z,0
2017-10-05T01:58:47.448Z,0
2017-10-05T01:59:47.469Z,0
2017-10-05T02:00:47.808Z,0
2017-10-05T02:01:47.568Z,0
2017-10-05T02:02:47.541Z,0
2017-10-05T02:03:47.567Z,0
2017-10-05T02:04:47.578Z,0
2017-10-05T02:05:47.597Z,0
2017-10-05T02:06:47.620Z,0
2017-10-05T02:07:47.638Z,0
2017-10-05T02:08:47.656Z,0
2017-10-05T02:09:47.712Z,0
2017-10-05T02:10:47.707Z,0
2017-10-05T02:11:47.728Z,0
2017-10-05T02:12:47.745Z,0
2017-10-05T02:13:47.769Z,0
2017-10-05T02:14:47.779Z,0
2017-10-05T02:15:47.805Z,0
2017-10-05T02:16:47.824Z,0
2017-10-05T02:17:48.212Z,0
2017-10-05T02:18:47.876Z,0
2017-10-05T02:19:47.902Z,0
2017-10-05T02:20:47.908Z,0
2017-10-05T02:21:47.938Z,0
2017-10-05T02:22:47.949Z,0
2017-10-05T02:23:47.972Z,0
2017-10-05T02:24:47.995Z,0
2017-10-05T02:25:48.029Z,0
2017-10-05T02:26:48.033Z,0
2017-10-05T02:27:48.051Z,0
2017-10-05T02:28:48.087Z,0
2017-10-05T02:29:48.423Z,0
2017-10-05T02:30:48.118Z,0
2017-10-05T02:31:48.141Z,0
2017-10-05T02:32:48.601Z,0
2017-10-05T02:33:48.184Z,0
2017-10-05T02:34:48.205Z,0
2017-10-05T02:35:48.221Z,0
2017-10-05T02:36:48.239Z,0
2017-10-05T02:37:48.571Z,0
2017-10-05T02:38:48.595Z,0
2017-10-05T02:39:48.316Z,0
2017-10-05T02:40:48.328Z,0
2017-10-05T02:41:48.355Z,0
2017-10-05T02:42:48.367Z,0
2017-10-05T02:43:48.583Z,0
2017-10-05T02:44:48.413Z,0
2017-10-05T02:45:48.752Z,0
2017-10-05T02:46:48.468Z,0
2017-10-05T02:47:48.524Z,0
2017-10-05T02:48:48.495Z,0
2017-10-05T02:49:48.513Z,0
2017-10-05T02:50:48.538Z,0
2017-10-05T02:51:48.555Z,0
2017-10-05T02:52:48.576Z,0
2017-10-05T02:53:48.616Z,0
2017-10-05T02:54:48.620Z,0
2017-10-05T02:55:49.272Z,0
2017-10-05T02:56:48.665Z,0
2017-10-05T02:57:48.687Z,0
2017-10-05T02:58:48.705Z,0
2017-10-05T02:59:48.722Z,0
2017-10-05T03:00:49.060Z,0
2017-10-05T03:01:48.761Z,0
2017-10-05T03:02:48.841Z,0
2017-10-05T03:03:48.812Z,0
2017-10-05T03:04:49.143Z,0
2017-10-05T03:05:48.852Z,0
2017-10-05T03:06:48.884Z,0
2017-10-05T03:07:48.901Z,0
2017-10-05T03:08:48.917Z,0
2017-10-05T03:09:49.244Z,0
2017-10-05T03:10:48.956Z,0
2017-10-05T03:11:49.317Z,0
2017-10-05T03:12:49.000Z,0
2017-10-05T03:13:49.020Z,0
2017-10-05T03:14:49.043Z,0
2017-10-05T03:15:49.065Z,0
2017-10-05T03:16:49.091Z,0
2017-10-05T03:17:49.112Z,0
2017-10-05T03:18:49.184Z,0
2017-10-05T03:19:49.157Z,0
2017-10-05T03:20:49.194Z,0
2017-10-05T03:21:49.204Z,0
2017-10-05T03:22:49.213Z,0
2017-10-05T03:23:49.248Z,0
2017-10-05T03:24:49.259Z,0
2017-10-05T03:25:49.595Z,0
2017-10-05T03:26:49.316Z,0
2017-10-05T03:27:49.324Z,0
2017-10-05T03:28:49.354Z,0
2017-10-05T03:29:49.365Z,0
2017-10-05T03:30:49.401Z,0
2017-10-05T03:31:49.408Z,0
2017-10-05T03:32:49.433Z,0
2017-10-05T03:33:49.510Z,0
2017-10-05T03:34:49.470Z,0
2017-10-05T03:35:49.499Z,0
2017-10-05T03:36:49.517Z,0
2017-10-05T03:37:49.538Z,0
2017-10-05T03:38:49.560Z,0
2017-10-05T03:39:49.580Z,0
2017-10-05T03:40:49.598Z,0
2017-10-05T03:41:49.928Z,0
2017-10-05T03:42:49.644Z,0
2017-10-05T03:43:49.664Z,0
2017-10-05T03:44:49.682Z,0
2017-10-05T03:45:49.703Z,0
2017-10-05T03:46:49.723Z,0
2017-10-05T03:47:49.746Z,0
2017-10-05T03:48:50.133Z,0
2017-10-05T03:49:49.792Z,0
2017-10-05T03:50:50.124Z,0
2017-10-05T03:51:49.830Z,0
2017-10-05T03:52:50.181Z,0
2017-10-05T03:53:49.872Z,0
2017-10-05T03:54:49.893Z,0
2017-10-05T03:55:49.922Z,0
2017-10-05T03:56:49.937Z,0
2017-10-05T03:57:50.274Z,0
2017-10-05T03:58:49.985Z,0
2017-10-05T03:59:49.997Z,0
2017-10-05T04:00:50.020Z,0
2017-10-05T04:01:50.040Z,0
2017-10-05T04:02:50.062Z,0
2017-10-05T04:03:50.136Z,0
2017-10-05T04:04:50.105Z,0
2017-10-05T04:05:50.147Z,0
2017-10-05T04:06:50.143Z,0
2017-10-05T04:07:50.163Z,0
2017-10-05T04:08:50.501Z,0
2017-10-05T04:09:50.213Z,0
2017-10-05T04:10:50.549Z,0
2017-10-05T04:11:50.257Z,0
2017-10-05T04:12:50.274Z,0
2017-10-05T04:13:50.601Z,0
2017-10-05T04:14:50.311Z,0
2017-10-05T04:15:50.335Z,0
2017-10-05T04:16:50.364Z,0
2017-10-05T04:17:50.382Z,0
2017-10-05T04:18:50.454Z,0
2017-10-05T04:19:50.413Z,0
2017-10-05T04:20:50.441Z,0
2017-10-05T04:21:50.456Z,0
2017-10-05T04:22:50.476Z,0
2017-10-05T04:23:50.810Z,0
2017-10-05T04:24:50.520Z,0
2017-10-05T04:25:50.543Z,0
2017-10-05T04:26:50.568Z,0
2017-10-05T04:27:50.578Z,0
2017-10-05T04:28:50.601Z,0
2017-10-05T04:29:50.624Z,0
2017-10-05T04:30:50.644Z,0
2017-10-05T04:31:51.004Z,0
2017-10-05T04:32:50.687Z,0
2017-10-05T04:33:50.759Z,0
2017-10-05T04:34:51.049Z,0
2017-10-05T04:35:51.072Z,0
2017-10-05T04:36:50.779Z,0
2017-10-05T04:37:50.790Z,0
2017-10-05T04:38:50.813Z,0
2017-10-05T04:39:50.830Z,0
2017-10-05T04:40:50.859Z,0
2017-10-05T04:41:50.876Z,0
2017-10-05T04:42:50.890Z,0
2017-10-05T04:43:50.934Z,0
2017-10-05T04:44:50.942Z,0
2017-10-05T04:45:50.950Z,0
2017-10-05T04:46:50.972Z,0
2017-10-05T04:47:51.000Z,0
2017-10-05T04:48:51.381Z,0
2017-10-05T04:49:51.032Z,0
2017-10-05T04:50:51.066Z,0
2017-10-05T04:51:51.386Z,0
2017-10-05T04:52:51.094Z,0
2017-10-05T04:53:51.115Z,4
2017-10-05T04:54:51.138Z,4
2017-10-05T04:55:51.162Z,0
2017-10-05T04:56:51.494Z,4
2017-10-05T04:57:51.209Z,8
2017-10-05T04:58:51.223Z,4
2017-10-05T04:59:51.562Z,8
2017-10-05T05:00:51.579Z,12
2017-10-05T05:01:51.283Z,8
2017-10-05T05:02:51.329Z,16
2017-10-05T05:03:51.711Z,20
2017-10-05T05:04:51.357Z,24
2017-10-05T05:05:51.367Z,24
2017-10-05T05:06:51.396Z,32
2017-10-05T05:07:51.411Z,36
2017-10-05T05:08:51.442Z,44
2017-10-05T05:09:51.452Z,52
2017-10-05T05:10:51.467Z,64
2017-10-05T05:11:51.491Z,72
2017-10-05T05:12:51.513Z,80
2017-10-05T05:13:51.532Z,96
2017-10-05T05:14:51.553Z,108
2017-10-05T05:15:51.575Z,120
2017-10-05T05:16:51.612Z,136
2017-10-05T05:17:51.611Z,148
2017-10-05T05:18:51.634Z,168
2017-10-05T05:19:51.672Z,184
2017-10-05T05:20:51.843Z,204
2017-10-05T05:21:51.699Z,224
2017-10-05T05:22:51.715Z,248
2017-10-05T05:23:52.056Z,272
2017-10-05T05:24:51.762Z,296
2017-10-05T05:25:51.786Z,324
2017-10-05T05:26:51.802Z,352
2017-10-05T05:27:51.821Z,380
2017-10-05T05:28:51.840Z,404
2017-10-05T05:29:51.866Z,432
2017-10-05T05:30:51.882Z,464
2017-10-05T05:31:51.913Z,500
2017-10-05T05:32:51.923Z,536
2017-10-05T05:33:51.949Z,584
2017-10-05T05:34:51.969Z,636
2017-10-05T05:35:52.040Z,684
2017-10-05T05:36:52.007Z,716
2017-10-05T05:37:52.033Z,748
2017-10-05T05:38:52.046Z,776
2017-10-05T05:39:52.630Z,800
2017-10-05T05:40:52.102Z,824
2017-10-05T05:41:52.485Z,848
2017-10-05T05:42:52.142Z,868
2017-10-05T05:43:52.149Z,892
2017-10-05T05:44:52.170Z,912
2017-10-05T05:45:52.193Z,936
2017-10-05T05:46:52.218Z,956
2017-10-05T05:47:52.234Z,960
2017-10-05T05:48:52.253Z,976
2017-10-05T05:49:52.277Z,980
2017-10-05T05:50:52.290Z,1036
2017-10-05T05:51:52.319Z,1096
2017-10-05T05:52:52.340Z,1116
2017-10-05T05:53:52.355Z,1120
2017-10-05T05:54:52.379Z,1052
2017-10-05T05:55:52.396Z,1096
2017-10-05T05:56:52.416Z,1232
2017-10-05T05:57:52.437Z,1268
2017-10-05T05:58:52.469Z,1296
2017-10-05T05:59:52.790Z,1324
2017-10-05T06:00:52.502Z,1236
2017-10-05T06:01:52.517Z,1264
2017-10-05T06:02:52.865Z,1340
2017-10-05T06:03:52.562Z,1424
2017-10-05T06:04:52.578Z,1388
2017-10-05T06:05:52.908Z,1324
2017-10-05T06:06:52.624Z,1356
2017-10-05T06:07:52.690Z,1408
2017-10-05T06:08:52.664Z,1440
2017-10-05T06:09:52.684Z,1568
2017-10-05T06:10:52.705Z,1576
2017-10-05T06:11:52.728Z,1560
2017-10-05T06:12:52.739Z,1640
2017-10-05T06:13:52.762Z,1760
2017-10-05T06:14:52.790Z,1916
2017-10-05T06:15:52.806Z,2084
2017-10-05T06:16:53.142Z,2112
2017-10-05T06:17:52.841Z,2148
2017-10-05T06:18:52.867Z,2184
2017-10-05T06:19:52.888Z,2220
2017-10-05T06:20:52.929Z,2264
2017-10-05T06:21:52.931Z,2304
2017-10-05T06:22:52.950Z,2344
2017-10-05T06:23:52.968Z,2380
2017-10-05T06:24:53.041Z,2420
2017-10-05T06:25:53.018Z,2460
2017-10-05T06:26:53.042Z,2504
2017-10-05T06:27:53.054Z,2532
2017-10-05T06:28:53.076Z,2540
2017-10-05T06:29:53.104Z,2620
2017-10-05T06:30:53.133Z,2256
2017-10-05T06:31:53.152Z,2688
2017-10-05T06:32:53.157Z,2728
2017-10-05T06:33:53.184Z,2764
2017-10-05T06:34:53.196Z,2800
2017-10-05T06:35:53.227Z,2840
2017-10-05T06:36:53.256Z,2876
2017-10-05T06:37:53.576Z,2908
2017-10-05T06:38:53.280Z,2944
2017-10-05T06:39:53.310Z,2980
2017-10-05T06:40:53.327Z,3020
2017-10-05T06:41:53.347Z,3056
2017-10-05T06:42:53.676Z,3100
2017-10-05T06:43:53.390Z,3140
2017-10-05T06:44:53.406Z,3176
2017-10-05T06:45:53.426Z,3224
2017-10-05T06:46:53.456Z,3260
2017-10-05T06:47:53.469Z,3304
2017-10-05T06:48:53.800Z,3340
2017-10-05T06:49:53.829Z,3392
2017-10-05T06:50:53.529Z,3436
2017-10-05T06:51:53.562Z,3484
2017-10-05T06:52:53.578Z,3536
2017-10-05T06:53:53.918Z,3584
2017-10-05T06:54:53.620Z,3644
2017-10-05T06:55:53.634Z,3728
2017-10-05T06:56:54.291Z,3832
2017-10-05T06:57:53.683Z,3928
2017-10-05T06:58:53.722Z,4088
2017-10-05T06:59:53.722Z,4124
2017-10-05T07:00:53.742Z,4176
2017-10-05T07:01:53.816Z,4292
2017-10-05T07:02:53.792Z,4404
2017-10-05T07:03:53.806Z,4528
2017-10-05T07:04:53.832Z,4660
2017-10-05T07:05:53.849Z,4808
2017-10-05T07:06:53.869Z,4912
2017-10-05T07:07:53.887Z,4664
2017-10-05T07:08:53.927Z,3236
2017-10-05T07:09:54.278Z,3324
2017-10-05T07:10:53.954Z,3484
2017-10-05T07:11:53.978Z,3688
2017-10-05T07:12:54.002Z,3720
2017-10-05T07:13:54.018Z,3100
2017-10-05T07:14:54.042Z,2852
2017-10-05T07:15:54.125Z,2844
2017-10-05T07:16:54.090Z,3568
2017-10-05T07:17:54.106Z,4972
2017-10-05T07:18:54.138Z,4980
2017-10-05T07:19:54.161Z,5020
2017-10-05T07:20:54.223Z,5032
2017-10-05T07:21:54.196Z,5060
2017-10-05T07:22:54.532Z,5040
2017-10-05T07:23:54.548Z,5028
2017-10-05T07:24:54.257Z,5040
2017-10-05T07:25:54.609Z,5056
2017-10-05T07:26:54.615Z,5080
2017-10-05T07:27:54.328Z,5128
2017-10-05T07:28:54.343Z,5208
2017-10-05T07:29:54.366Z,5320
2017-10-05T07:30:54.385Z,5408
2017-10-05T07:31:54.418Z,5464
2017-10-05T07:32:54.435Z,5504
2017-10-05T07:33:54.464Z,5588
2017-10-05T07:34:54.486Z,5720
2017-10-05T07:35:54.549Z,5928
2017-10-05T07:36:54.527Z,6208
2017-10-05T07:37:54.552Z,6588
2017-10-05T07:38:54.903Z,7100
2017-10-05T07:39:54.586Z,7460
2017-10-05T07:40:54.664Z,7684
2017-10-05T07:41:54.629Z,7352
2017-10-05T07:42:54.964Z,6404
2017-10-05T07:43:54.672Z,5644
2017-10-05T07:44:54.703Z,5352
2017-10-05T07:45:54.719Z,4996
2017-10-05T07:46:55.050Z,4920
2017-10-05T07:47:55.071Z,5080
2017-10-05T07:48:54.782Z,6668
2017-10-05T07:49:54.814Z,6284
2017-10-05T07:50:54.829Z,7184
2017-10-05T07:51:55.162Z,5876
2017-10-05T07:52:54.881Z,6004
2017-10-05T07:53:54.898Z,5064
2017-10-05T07:54:54.927Z,4776
2017-10-05T07:55:54.950Z,4752
2017-10-05T07:56:55.329Z,5652
2017-10-05T07:57:54.994Z,7844
2017-10-05T07:58:55.014Z,6788
2017-10-05T07:59:55.053Z,8124
2017-10-05T08:00:55.064Z,8192
2017-10-05T08:01:55.086Z,8112
2017-10-05T08:02:55.099Z,8116
2017-10-05T08:03:55.121Z,7364
2017-10-05T08:04:55.145Z,7208
2017-10-05T08:05:55.171Z,7364
2017-10-05T08:06:55.195Z,7320
2017-10-05T08:07:55.222Z,7440
2017-10-05T08:08:55.263Z,7620
2017-10-05T08:09:55.562Z,7628
2017-10-05T08:10:55.287Z,7588
2017-10-05T08:11:55.311Z,7540
2017-10-05T08:12:55.330Z,7584
2017-10-05T08:13:55.352Z,7820
2017-10-05T08:14:55.690Z,8160
2017-10-05T08:15:56.597Z,8548
2017-10-05T08:16:55.420Z,8924
2017-10-05T08:17:55.454Z,9008
2017-10-05T08:18:55.467Z,8748
2017-10-05T08:19:55.491Z,8564
2017-10-05T08:20:55.519Z,8236
2017-10-05T08:21:55.548Z,7292
2017-10-05T08:22:55.565Z,7384
2017-10-05T08:23:55.586Z,7476
2017-10-05T08:24:55.607Z,7280
2017-10-05T08:25:55.934Z,7320
2017-10-05T08:26:55.654Z,7408
2017-10-05T08:27:55.677Z,7420
2017-10-05T08:28:55.704Z,7380
2017-10-05T08:29:55.720Z,7364
2017-10-05T08:30:55.808Z,7304
2017-10-05T08:31:55.772Z,7208
2017-10-05T08:32:56.115Z,7084
2017-10-05T08:33:55.822Z,6976
2017-10-05T08:34:55.845Z,6896
2017-10-05T08:35:55.860Z,6800
2017-10-05T08:36:55.884Z,6652
2017-10-05T08:37:55.918Z,6616
2017-10-05T08:38:56.256Z,6628
2017-10-05T08:39:55.960Z,6604
2017-10-05T08:40:55.981Z,6620
2017-10-05T08:41:56.013Z,6636
2017-10-05T08:42:56.027Z,6656
2017-10-05T08:43:56.054Z,6672
2017-10-05T08:44:56.392Z,6692
2017-10-05T08:45:56.109Z,6708
2017-10-05T08:46:56.120Z,6740
2017-10-05T08:47:56.148Z,6764
2017-10-05T08:48:57.165Z,6792
2017-10-05T08:49:56.193Z,6820
2017-10-05T08:50:56.217Z,6828
2017-10-05T08:51:56.254Z,6912
2017-10-05T08:52:56.575Z,6936
2017-10-05T08:53:56.607Z,6932
2017-10-05T08:54:56.308Z,6948
2017-10-05T08:55:56.332Z,6984
2017-10-05T08:56:56.676Z,6940
2017-10-05T08:57:56.390Z,6960
2017-10-05T08:58:56.718Z,6952
2017-10-05T08:59:56.432Z,6972
2017-10-05T09:00:56.454Z,6988
2017-10-05T09:01:56.478Z,6996
2017-10-05T09:02:56.499Z,7020
2017-10-05T09:03:56.838Z,6832
2017-10-05T09:04:56.599Z,6796
2017-10-05T09:05:56.578Z,6844
2017-10-05T09:06:56.910Z,6852
2017-10-05T09:07:56.620Z,6876
2017-10-05T09:08:56.645Z,6888
2017-10-05T09:09:56.750Z,6900
2017-10-05T09:10:56.713Z,6912
2017-10-05T09:11:56.714Z,6932
2017-10-05T09:12:57.061Z,6928
2017-10-05T09:13:56.764Z,6944
2017-10-05T09:14:56.796Z,6940
2017-10-05T09:15:57.122Z,6940
2017-10-05T09:16:56.839Z,6964
2017-10-05T09:17:57.174Z,6964
2017-10-05T09:18:56.884Z,6980
2017-10-05T09:19:56.906Z,6988
2017-10-05T09:20:56.934Z,7004
2017-10-05T09:21:57.010Z,7000
2017-10-05T09:22:56.988Z,7012
2017-10-05T09:23:57.012Z,7024
2017-10-05T09:24:57.031Z,6888
2017-10-05T09:25:57.057Z,7048
2017-10-05T09:26:57.081Z,7048
2017-10-05T09:27:57.102Z,7064
2017-10-05T09:28:57.131Z,7068
2017-10-05T09:29:57.153Z,7080
2017-10-05T09:30:57.180Z,7068
2017-10-05T09:31:57.201Z,7108
2017-10-05T09:32:57.234Z,7116
2017-10-05T09:33:57.251Z,7004
2017-10-05T09:34:57.273Z,7136
2017-10-05T09:35:57.307Z,7148
2017-10-05T09:36:57.332Z,7164
2017-10-05T09:37:57.344Z,7216
2017-10-05T09:38:57.373Z,7236
2017-10-05T09:39:57.395Z,7264
2017-10-05T09:40:57.466Z,7256
2017-10-05T09:41:57.451Z,7264
2017-10-05T09:42:57.785Z,7272
2017-10-05T09:43:57.521Z,7280
2017-10-05T09:44:57.519Z,7304
2017-10-05T09:45:57.545Z,7304
2017-10-05T09:46:57.571Z,7312
2017-10-05T09:47:57.601Z,7312
2017-10-05T09:48:57.619Z,7312
2017-10-05T09:49:57.654Z,7316
2017-10-05T09:50:57.685Z,7348
2017-10-05T09:51:57.692Z,7352
2017-10-05T09:52:57.721Z,7360
2017-10-05T09:53:57.748Z,7372
2017-10-05T09:54:57.771Z,7396
2017-10-05T09:55:57.847Z,7432
2017-10-05T09:56:57.826Z,7504
2017-10-05T09:57:57.863Z,7700
2017-10-05T09:58:57.870Z,11196
2017-10-05T09:59:57.897Z,18048
2017-10-05T10:00:57.940Z,25728
2017-10-05T10:01:57.944Z,32576
2017-10-05T10:02:57.974Z,34752
2017-10-05T10:03:57.995Z,34496
2017-10-05T10:04:58.717Z,33920
2017-10-05T10:05:58.045Z,35360
2017-10-05T10:06:58.071Z,36064
2017-10-05T10:07:58.411Z,35776
2017-10-05T10:08:58.126Z,35872
2017-10-05T10:09:58.154Z,35168
2017-10-05T10:10:58.231Z,34528
2017-10-05T10:11:58.208Z,38496
2017-10-05T10:12:58.239Z,38944
2017-10-05T10:13:58.264Z,37856
2017-10-05T10:14:58.297Z,37824
2017-10-05T10:15:58.317Z,40160
2017-10-05T10:16:58.352Z,41792
2017-10-05T10:17:58.377Z,42368
2017-10-05T10:18:58.728Z,42144
2017-10-05T10:19:58.433Z,42208
2017-10-05T10:20:58.475Z,42944
2017-10-05T10:21:58.830Z,44256
2017-10-05T10:22:58.536Z,45216
2017-10-05T10:23:58.557Z,45760
2017-10-05T10:24:58.586Z,47264
2017-10-05T10:25:58.667Z,45984
2017-10-05T10:26:58.656Z,45408
2017-10-05T10:27:58.990Z,46592
2017-10-05T10:28:59.026Z,47104
2017-10-05T10:29:58.734Z,47392
2017-10-05T10:30:58.780Z,50496
2017-10-05T10:31:58.792Z,50016
2017-10-05T10:32:59.137Z,47232
2017-10-05T10:33:58.862Z,47104
2017-10-05T10:34:58.883Z,39424
2017-10-05T10:35:58.933Z,46368
2017-10-05T10:36:58.945Z,49504
2017-10-05T10:37:59.594Z,49632
2017-10-05T10:38:59.014Z,50208
2017-10-05T10:39:59.043Z,51712
2017-10-05T10:40:59.125Z,56992
2017-10-05T10:41:59.105Z,58656
2017-10-05T10:42:59.133Z,50880
2017-10-05T10:43:59.166Z,61248
2017-10-05T10:44:59.192Z,59520
2017-10-05T10:45:59.562Z,37056
2017-10-05T10:46:59.564Z,34432
2017-10-05T10:47:59.286Z,36448
2017-10-05T10:48:59.317Z,35392
2017-10-05T10:49:59.980Z,31936
2017-10-05T10:50:59.385Z,30496
2017-10-05T10:51:59.409Z,31968
2017-10-05T10:52:59.445Z,32416
2017-10-05T10:53:59.476Z,32512
2017-10-05T10:54:59.506Z,40768
2017-10-05T10:55:59.534Z,34688
2017-10-05T10:56:59.631Z,28320
2017-10-05T10:57:59.916Z,29952
2017-10-05T10:58:59.632Z,29984
2017-10-05T10:59:59.667Z,29184
2017-10-05T11:00:59.694Z,29984
2017-10-05T11:01:59.736Z,32384
2017-10-05T11:02:59.776Z,34304
2017-10-05T11:03:59.804Z,35200
2017-10-05T11:04:59.856Z,38528
2017-10-05T11:05:59.859Z,41504
2017-10-05T11:06:59.889Z,42816
2017-10-05T11:07:59.918Z,47424
2017-10-05T11:08:59.950Z,42624
2017-10-05T11:09:59.982Z,36320
2017-10-05T11:11:00.337Z,40192
2017-10-05T11:12:00.091Z,41472
2017-10-05T11:13:00.392Z,36192
2017-10-05T11:14:00.110Z,35072
2017-10-05T11:15:00.154Z,40704
2017-10-05T11:16:00.177Z,48288
2017-10-05T11:17:00.213Z,48672
2017-10-05T11:18:00.270Z,44704
2017-10-05T11:19:00.272Z,42464
2017-10-05T11:20:00.307Z,42144
2017-10-05T11:21:00.346Z,46944
2017-10-05T11:22:00.371Z,53632
2017-10-05T11:23:00.712Z,57504
2017-10-05T11:24:00.748Z,59520
2017-10-05T11:25:00.786Z,59200
2017-10-05T11:26:00.498Z,57504
2017-10-05T11:27:00.534Z,54464
2017-10-05T11:28:00.562Z,53632
2017-10-05T11:29:01.246Z,52960
2017-10-05T11:30:00.631Z,57600
2017-10-05T11:31:00.662Z,60064
2017-10-05T11:32:00.749Z,56448
2017-10-05T11:33:00.730Z,51744
2017-10-05T11:34:00.758Z,54944
2017-10-05T11:35:00.792Z,61536
2017-10-05T11:36:00.830Z,64736
2017-10-05T11:37:00.879Z,65504
2017-10-05T11:38:00.894Z,68032
2017-10-05T11:39:00.924Z,69024
2017-10-05T11:40:01.342Z,65376
2017-10-05T11:41:01.004Z,63264
2017-10-05T11:42:01.038Z,66912
2017-10-05T11:43:01.118Z,73792
2017-10-05T11:44:01.432Z,74624
2017-10-05T11:45:01.128Z,71968
2017-10-05T11:46:01.167Z,71200
2017-10-05T11:47:01.192Z,74880
2017-10-05T11:48:01.277Z,75584
2017-10-05T11:49:01.268Z,72064
2017-10-05T11:50:01.304Z,74016
2017-10-05T11:51:01.324Z,77440
2017-10-05T11:52:01.365Z,77888
2017-10-05T11:53:01.389Z,75072
2017-10-05T11:54:01.740Z,76288
2017-10-05T11:55:01.470Z,75936
2017-10-05T11:56:01.496Z,74112
2017-10-05T11:57:01.843Z,71712
2017-10-05T11:58:01.876Z,76096
2017-10-05T11:59:01.609Z,79232
2017-10-05T12:00:01.632Z,80288
2017-10-05T12:01:02.066Z,82912
2017-10-05T12:02:01.706Z,81408
2017-10-05T12:03:02.049Z,84640
2017-10-05T12:04:01.777Z,85120
2017-10-05T12:05:01.808Z,83648
2017-10-05T12:06:01.827Z,86496
2017-10-05T12:07:01.864Z,83008
2017-10-05T12:08:01.906Z,75424
2017-10-05T12:09:01.933Z,67840
2017-10-05T12:10:02.290Z,53760
2017-10-05T12:11:02.003Z,59744
2017-10-05T12:12:02.054Z,66880
2017-10-05T12:13:02.379Z,81408
2017-10-05T12:14:02.105Z,89440
2017-10-05T12:15:02.134Z,88480
2017-10-05T12:16:02.487Z,88608
2017-10-05T12:17:02.211Z,20544
2017-10-05T12:18:02.244Z,87744
2017-10-05T12:19:02.276Z,86560
2017-10-05T12:20:02.315Z,90048
2017-10-05T12:21:02.353Z,88544
2017-10-05T12:22:02.384Z,86208
2017-10-05T12:23:02.499Z,82080
2017-10-05T12:24:02.452Z,82496
2017-10-05T12:25:02.486Z,57888
2017-10-05T12:26:02.530Z,87040
2017-10-05T12:27:02.552Z,85408
2017-10-05T12:28:02.594Z,79936
2017-10-05T12:29:02.640Z,69472
2017-10-05T12:30:02.657Z,87680
2017-10-05T12:31:02.688Z,95264
2017-10-05T12:32:02.723Z,45248
2017-10-05T12:33:02.756Z,47584
2017-10-05T12:34:02.799Z,40160
2017-10-05T12:35:02.823Z,55616
2017-10-05T12:36:02.864Z,41504
2017-10-05T12:37:02.889Z,26784
2017-10-05T12:38:02.977Z,77056
2017-10-05T12:39:02.961Z,83488
2017-10-05T12:40:03.322Z,31968
2017-10-05T12:41:03.026Z,19840
2017-10-05T12:42:03.055Z,25696
2017-10-05T12:43:03.097Z,51680
2017-10-05T12:44:03.138Z,20160
2017-10-05T12:45:03.227Z,18368
2017-10-05T12:46:03.188Z,16224
2017-10-05T12:47:03.540Z,14640
2017-10-05T12:48:04.173Z,16288
2017-10-05T12:49:04.011Z,23968
2017-10-05T12:50:03.635Z,19936
2017-10-05T12:51:03.344Z,16960
2017-10-05T12:52:03.684Z,14380
2017-10-05T12:53:03.405Z,12560
2017-10-05T12:54:03.445Z,11096
2017-10-05T12:55:03.863Z,10260
2017-10-05T12:56:03.505Z,10436
2017-10-05T12:57:03.832Z,10896
2017-10-05T12:58:03.573Z,10452
2017-10-05T12:59:03.593Z,10884
2017-10-05T13:00:03.613Z,12028
2017-10-05T13:01:03.643Z,13532
2017-10-05T13:02:03.795Z,14868
2017-10-05T13:03:03.701Z,18176
2017-10-05T13:04:03.825Z,20032
2017-10-05T13:05:03.831Z,20992
2017-10-05T13:06:04.146Z,31200
2017-10-05T13:07:03.844Z,23072
2017-10-05T13:08:03.850Z,13240
2017-10-05T13:09:03.872Z,13080
2017-10-05T13:10:03.911Z,13468
2017-10-05T13:11:04.257Z,15064
2017-10-05T13:12:03.962Z,15484
2017-10-05T13:13:03.994Z,16288
2017-10-05T13:14:04.331Z,18144
2017-10-05T13:16:08.244Z,11144
2017-10-05T13:16:16.838Z,11152
2017-10-05T13:17:16.891Z,11160
2017-10-05T13:18:16.899Z,13068
2017-10-05T13:19:17.059Z,15376
2017-10-05T13:20:16.960Z,15828
2017-10-05T13:21:17.606Z,25504
2017-10-05T13:22:17.013Z,47872
2017-10-05T13:23:17.040Z,60864
2017-10-05T13:24:17.075Z,96768
2017-10-05T13:25:17.099Z,92256
2017-10-05T13:26:17.129Z,86144
2017-10-05T13:27:17.165Z,85440
2017-10-05T13:28:17.238Z,81664
2017-10-05T13:29:17.216Z,61120
2017-10-05T13:30:17.246Z,76032
2017-10-05T13:31:17.276Z,76608
2017-10-05T13:32:17.311Z,67232
2017-10-05T13:33:17.654Z,74944
2017-10-05T13:34:17.376Z,79712
2017-10-05T13:35:17.475Z,76416
2017-10-05T13:36:17.439Z,72736
2017-10-05T13:37:17.469Z,67296
2017-10-05T13:38:17.500Z,54304
2017-10-05T13:39:17.562Z,60192
2017-10-05T13:40:17.588Z,54848
2017-10-05T13:41:17.599Z,36512
2017-10-05T13:42:17.952Z,73952
2017-10-05T13:43:18.136Z,81248
2017-10-05T13:44:17.699Z,82656